createdAt,value
2023-01-06T00:01:09.770Z,13.24
2023-01-06T00:03:12.099Z,13.32
2023-01-06T00:05:14.999Z,13.26
2023-01-06T00:07:17.332Z,13.38
2023-01-06T00:09:19.575Z,13.39
2023-01-06T00:11:22.318Z,13.43
2023-01-06T00:13:24.613Z,13.26
2023-01-06T00:15:26.899Z,13.08
2023-01-06T00:17:29.257Z,13.15
2023-01-06T00:19:31.536Z,13.15
2023-01-06T00:21:33.752Z,13.20
2023-01-06T00:23:36.860Z,13.22
2023-01-06T00:25:39.089Z,13.19
2023-01-06T00:27:41.471Z,13.22
2023-01-06T00:29:43.830Z,13.22
2023-01-06T00:31:46.233Z,13.08
2023-01-06T00:33:48.495Z,13.03
2023-01-06T00:35:51.220Z,13.13
2023-01-06T00:37:53.573Z,13.13
2023-01-06T00:39:55.910Z,13.12
2023-01-06T00:42:01.275Z,13.13
2023-01-06T00:44:03.789Z,13.16
2023-01-06T00:46:06.127Z,13.18
2023-01-06T00:48:08.527Z,13.18
2023-01-06T00:50:11.239Z,12.98
2023-01-06T00:52:13.691Z,13.04
2023-01-06T00:54:16.396Z,12.97
2023-01-06T00:56:18.651Z,12.99
2023-01-06T00:58:20.889Z,12.92
2023-01-06T01:00:23.292Z,13.08
2023-01-06T01:02:25.773Z,12.85
2023-01-06T01:04:29.481Z,12.88
2023-01-06T01:06:31.836Z,12.90
2023-01-06T01:08:34.671Z,12.89
2023-01-06T01:10:37.007Z,12.84
2023-01-06T01:12:39.315Z,12.81
2023-01-06T01:14:47.713Z,12.81
2023-01-06T01:16:50.069Z,12.77
2023-01-06T01:18:52.493Z,12.74
2023-01-06T01:20:54.713Z,12.79
2023-01-06T01:22:57.032Z,12.73
2023-01-06T01:24:59.215Z,12.73
2023-01-06T01:27:01.531Z,12.70
2023-01-06T01:29:04.548Z,12.77
2023-01-06T01:31:06.975Z,12.75
2023-01-06T01:33:09.367Z,12.57
2023-01-06T01:35:11.758Z,12.58
2023-01-06T01:37:14.304Z,12.57
2023-01-06T01:39:18.976Z,12.65
2023-01-06T01:41:23.322Z,12.58
2023-01-06T01:43:26.322Z,12.64
2023-01-06T01:45:30.228Z,12.60
2023-01-06T01:47:37.218Z,12.60
2023-01-06T01:49:43.861Z,12.46
2023-01-06T01:51:48.566Z,12.52
2023-01-06T01:53:54.434Z,12.45
2023-01-06T01:56:00.982Z,12.59
2023-01-06T01:58:10.457Z,12.58
2023-01-06T02:00:13.214Z,12.51
2023-01-06T02:02:17.396Z,12.68
2023-01-06T02:04:22.983Z,12.61
2023-01-06T02:06:27.178Z,12.44
2023-01-06T02:08:32.878Z,12.36
2023-01-06T02:10:35.097Z,12.47
2023-01-06T02:12:37.586Z,12.57
2023-01-06T02:14:39.877Z,12.59
2023-01-06T02:16:48.281Z,12.55
2023-01-06T02:18:58.364Z,12.42
2023-01-06T02:21:01.375Z,12.59
2023-01-06T02:23:08.063Z,12.44
2023-01-06T02:25:11.974Z,12.44
2023-01-06T02:27:17.685Z,12.43
2023-01-06T02:29:30.896Z,12.47
2023-01-06T02:31:36.598Z,12.55
2023-01-06T02:33:44.624Z,12.51
2023-01-06T02:35:50.317Z,12.47
2023-01-06T02:37:58.677Z,12.45
2023-01-06T02:40:03.675Z,12.43
2023-01-06T02:42:17.119Z,12.42
2023-01-06T02:44:26.847Z,12.29
2023-01-06T02:46:32.250Z,12.22
2023-01-06T02:48:40.786Z,12.07
2023-01-06T02:50:46.593Z,12.04
2023-01-06T02:52:53.317Z,12.10
2023-01-06T02:55:04.550Z,11.97
2023-01-06T02:57:15.484Z,12.04
2023-01-06T02:59:22.858Z,12.04
2023-01-06T03:01:32.859Z,12.03
2023-01-06T03:03:38.561Z,11.93
2023-01-06T03:05:44.851Z,11.76
2023-01-06T03:07:48.760Z,11.61
2023-01-06T03:09:55.825Z,11.53
2023-01-06T03:12:01.198Z,11.69
2023-01-06T03:14:10.575Z,11.67
2023-01-06T03:16:13.392Z,11.52
2023-01-06T03:18:15.716Z,11.49
2023-01-06T03:20:19.055Z,11.46
2023-01-06T03:22:22.336Z,11.55
2023-01-06T03:24:24.656Z,11.60
2023-01-06T03:26:27.817Z,11.51
2023-01-06T03:28:29.993Z,11.51
2023-01-06T03:30:43.687Z,11.21
2023-01-06T03:32:55.147Z,11.35
2023-01-06T03:34:59.366Z,11.39
2023-01-06T03:37:05.951Z,11.10
2023-01-06T03:39:12.226Z,11.15
2023-01-06T03:41:48.685Z,11.23
2023-01-06T03:43:57.219Z,11.27
2023-01-06T03:46:02.902Z,11.24
2023-01-06T03:48:05.783Z,11.05
2023-01-06T03:50:18.386Z,11.06
2023-01-06T03:52:27.220Z,11.18
2023-01-06T03:54:35.732Z,11.25
2023-01-06T03:56:46.974Z,10.99
2023-01-06T03:58:54.737Z,10.97
2023-01-06T04:00:59.192Z,10.98
2023-01-06T04:03:02.634Z,11.07
2023-01-06T04:05:07.755Z,11.13
2023-01-06T04:07:10.021Z,11.17
2023-01-06T04:09:12.458Z,11.16
2023-01-06T04:11:17.859Z,11.09
2023-01-06T04:13:20.003Z,11.11
2023-01-06T04:15:24.669Z,11.08
2023-01-06T04:17:26.816Z,11.08
2023-01-06T04:19:29.050Z,11.13
2023-01-06T04:21:31.309Z,11.12
2023-01-06T04:23:33.654Z,11.05
2023-01-06T04:25:35.879Z,10.92
2023-01-06T04:27:38.159Z,10.85
2023-01-06T04:29:41.120Z,10.96
2023-01-06T04:31:44.037Z,10.92
2023-01-06T04:33:46.304Z,10.92
2023-01-06T04:35:48.575Z,10.83
2023-01-06T04:37:50.936Z,10.89
2023-01-06T04:39:53.134Z,10.88
2023-01-06T04:41:55.360Z,10.84
2023-01-06T04:43:58.247Z,10.89
2023-01-06T04:46:00.716Z,10.79
2023-01-06T04:48:02.976Z,10.89
2023-01-06T04:50:05.877Z,10.88
2023-01-06T04:52:09.303Z,10.67
2023-01-06T04:54:11.577Z,10.77
2023-01-06T04:56:14.259Z,10.80
2023-01-06T04:58:16.539Z,10.60
2023-01-06T05:00:19.437Z,10.67
2023-01-06T05:02:21.763Z,10.57
2023-01-06T05:04:23.918Z,10.67
2023-01-06T05:06:26.148Z,10.47
2023-01-06T05:08:28.737Z,10.42
2023-01-06T05:10:30.938Z,10.44
2023-01-06T05:12:33.516Z,10.29
2023-01-06T05:14:35.780Z,10.33
2023-01-06T05:16:38.784Z,10.27
2023-01-06T05:18:40.984Z,10.34
2023-01-06T05:20:43.197Z,10.26
2023-01-06T05:22:45.380Z,10.17
2023-01-06T05:24:47.648Z,10.05
2023-01-06T05:26:49.919Z,10.19
2023-01-06T05:28:52.407Z,10.20
2023-01-06T05:31:00.628Z,10.18
2023-01-06T05:33:02.834Z,10.21
2023-01-06T05:35:05.388Z,10.26
2023-01-06T05:37:07.631Z,10.26
2023-01-06T05:39:09.963Z,10.18
2023-01-06T05:41:12.575Z,10.26
2023-01-06T05:43:14.775Z,10.20
2023-01-06T05:45:17.020Z,10.25
2023-01-06T05:47:19.206Z,10.18
2023-01-06T05:49:22.231Z,10.12
2023-01-06T05:51:24.435Z,10.12
2023-01-06T05:53:26.711Z,10.17
2023-01-06T05:55:28.998Z,10.16
2023-01-06T05:57:33.911Z,10.12
2023-01-06T05:59:36.154Z,10.13
2023-01-06T06:01:38.454Z,10.12
2023-01-06T06:03:40.740Z,10.08
2023-01-06T06:05:42.995Z,10.13
2023-01-06T06:07:45.342Z,10.15
2023-01-06T06:09:47.576Z,10.12
2023-01-06T06:11:52.071Z,10.13
2023-01-06T06:13:56.417Z,10.14
2023-01-06T06:16:05.253Z,10.16
2023-01-06T06:18:07.599Z,10.12
2023-01-06T06:20:10.264Z,10.16
2023-01-06T06:22:12.822Z,10.11
2023-01-06T06:24:15.115Z,10.17
2023-01-06T06:26:17.514Z,10.19
2023-01-06T06:28:19.718Z,10.19
2023-01-06T06:30:21.898Z,10.07
2023-01-06T06:32:24.117Z,10.03
2023-01-06T06:34:26.347Z,10.03
2023-01-06T06:36:29.051Z,10.00
2023-01-06T06:38:31.360Z,9.99
2023-01-06T06:40:33.521Z,10.00
2023-01-06T06:42:35.837Z,9.97
2023-01-06T06:44:37.974Z,9.98
2023-01-06T06:46:40.135Z,9.94
2023-01-06T06:48:42.517Z,9.94
2023-01-06T06:50:44.763Z,9.90
2023-01-06T06:52:47.215Z,10.00
2023-01-06T06:54:49.428Z,9.92
2023-01-06T06:56:51.833Z,9.93
2023-01-06T06:58:54.078Z,9.96
2023-01-06T07:00:56.256Z,9.94
2023-01-06T07:02:58.467Z,9.93
2023-01-06T07:05:00.734Z,9.89
2023-01-06T07:07:03.081Z,9.87
2023-01-06T07:09:05.758Z,9.79
2023-01-06T07:11:07.877Z,9.87
2023-01-06T07:13:10.385Z,9.76
2023-01-06T07:15:12.843Z,9.59
2023-01-06T07:17:15.037Z,9.73
2023-01-06T07:19:17.396Z,9.75
2023-01-06T07:21:20.051Z,9.73
2023-01-06T07:23:23.491Z,9.72
2023-01-06T07:25:25.983Z,9.63
2023-01-06T07:27:28.196Z,9.53
2023-01-06T07:29:30.552Z,9.57
2023-01-06T07:31:32.769Z,9.57
2023-01-06T07:33:34.986Z,9.67
2023-01-06T07:35:37.226Z,9.54
2023-01-06T07:37:39.428Z,9.54
2023-01-06T07:39:41.815Z,9.52
2023-01-06T07:41:44.079Z,9.34
2023-01-06T07:43:46.364Z,9.47
2023-01-06T07:45:49.254Z,9.48
2023-01-06T07:47:51.564Z,9.60
2023-01-06T07:49:53.764Z,9.64
2023-01-06T07:51:56.644Z,9.63
2023-01-06T07:53:58.967Z,9.57
2023-01-06T07:56:01.205Z,9.53
2023-01-06T07:58:06.027Z,9.43
2023-01-06T08:00:09.318Z,9.56
2023-01-06T08:02:14.006Z,9.34
2023-01-06T08:04:16.363Z,9.36
2023-01-06T08:06:18.796Z,9.51
2023-01-06T08:08:21.138Z,9.49
2023-01-06T08:10:23.400Z,9.42
2023-01-06T08:12:25.597Z,9.47
2023-01-06T08:14:27.822Z,9.35
2023-01-06T08:16:30.235Z,9.41
2023-01-06T08:18:32.559Z,9.36
2023-01-06T08:20:35.054Z,9.40
2023-01-06T08:22:37.298Z,9.43
2023-01-06T08:24:39.712Z,9.42
2023-01-06T08:26:43.429Z,9.42
2023-01-06T08:28:46.472Z,9.43
2023-01-06T08:30:49.346Z,9.35
2023-01-06T08:32:51.607Z,9.51
2023-01-06T08:34:53.734Z,9.41
2023-01-06T08:36:55.941Z,9.55
2023-01-06T08:38:58.455Z,9.57
2023-01-06T08:41:02.072Z,9.56
2023-01-06T08:43:04.361Z,9.62
2023-01-06T08:45:08.159Z,9.60
2023-01-06T08:47:10.429Z,9.62
2023-01-06T08:49:12.653Z,9.69
2023-01-06T08:51:19.179Z,9.70
2023-01-06T08:53:21.539Z,9.75
2023-01-06T08:55:23.904Z,9.82
2023-01-06T08:57:26.488Z,9.89
2023-01-06T08:59:28.753Z,9.88
2023-01-06T09:01:34.199Z,9.89
2023-01-06T09:03:36.652Z,9.86
2023-01-06T09:05:38.878Z,9.79
2023-01-06T09:07:41.101Z,9.91
2023-01-06T09:09:43.314Z,9.88
2023-01-06T09:11:46.855Z,9.84
2023-01-06T09:13:51.082Z,9.91
2023-01-06T09:15:57.893Z,9.84
2023-01-06T09:18:00.147Z,9.84
2023-01-06T09:20:02.729Z,9.83
2023-01-06T09:22:05.176Z,9.87
2023-01-06T09:24:07.594Z,9.94
2023-01-06T09:26:10.213Z,9.96
2023-01-06T09:28:12.395Z,9.89
2023-01-06T09:30:14.615Z,10.00
2023-01-06T09:32:17.436Z,9.91
2023-01-06T09:34:19.771Z,9.98
2023-01-06T09:36:22.640Z,10.00
2023-01-06T09:38:25.038Z,10.03
2023-01-06T09:40:40.753Z,10.10
2023-01-06T09:42:49.079Z,10.11
2023-01-06T09:44:52.096Z,10.07
2023-01-06T09:46:54.757Z,10.02
2023-01-06T09:49:03.271Z,10.05
2023-01-06T09:51:07.757Z,10.08
2023-01-06T09:53:14.417Z,10.15
2023-01-06T09:55:24.079Z,10.08
2023-01-06T09:57:33.329Z,10.19
2023-01-06T09:59:46.876Z,10.18
2023-01-06T10:01:51.595Z,10.11
2023-01-06T10:03:54.000Z,10.22
2023-01-06T10:06:06.678Z,10.24
2023-01-06T10:08:18.476Z,10.26
2023-01-06T10:10:22.417Z,10.30
2023-01-06T10:12:28.227Z,10.41
2023-01-06T10:14:34.223Z,10.36
2023-01-06T10:16:42.619Z,10.52
2023-01-06T10:18:49.435Z,10.51
2023-01-06T10:20:58.279Z,10.58
2023-01-06T10:23:08.830Z,10.63
2023-01-06T10:25:16.149Z,10.57
2023-01-06T10:27:20.232Z,10.68
2023-01-06T10:29:25.316Z,10.82
2023-01-06T10:31:33.407Z,10.81
2023-01-06T10:33:41.090Z,11.02
2023-01-06T10:35:43.475Z,11.05
2023-01-06T10:37:48.814Z,10.97
2023-01-06T10:40:00.424Z,10.99
2023-01-06T10:42:23.640Z,11.18
2023-01-06T10:44:26.087Z,11.19
2023-01-06T10:46:35.212Z,11.22
2023-01-06T10:48:41.043Z,11.22
2023-01-06T10:50:43.505Z,11.23
2023-01-06T10:52:46.995Z,11.31
2023-01-06T10:54:52.537Z,11.30
2023-01-06T10:57:01.899Z,11.34
2023-01-06T10:59:08.393Z,11.42
2023-01-06T11:01:16.415Z,11.51
2023-01-06T11:03:32.848Z,11.34
2023-01-06T11:05:35.921Z,11.32
2023-01-06T11:07:38.540Z,11.25
2023-01-06T11:09:43.884Z,11.28
2023-01-06T11:11:49.456Z,11.43
2023-01-06T11:13:56.318Z,11.34
2023-01-06T11:16:02.268Z,11.50
2023-01-06T11:18:06.284Z,11.60
2023-01-06T11:20:29.288Z,11.64
2023-01-06T11:22:35.683Z,11.66
2023-01-06T11:24:52.060Z,11.69
2023-01-06T11:27:02.833Z,11.77
2023-01-06T11:29:23.083Z,11.81
2023-01-06T11:31:27.125Z,11.80
2023-01-06T11:33:31.848Z,11.75
2023-01-06T11:35:35.399Z,11.82
2023-01-06T11:37:40.928Z,11.87
2023-01-06T11:39:45.212Z,11.80
2023-01-06T11:41:52.123Z,11.88
2023-01-06T11:43:58.244Z,11.99
2023-01-06T11:46:07.103Z,12.00
2023-01-06T11:48:18.116Z,12.02
2023-01-06T11:50:21.395Z,12.06
2023-01-06T11:52:25.469Z,12.08
2023-01-06T11:54:32.196Z,12.05
2023-01-06T11:56:34.396Z,12.02
2023-01-06T11:58:41.377Z,12.14
2023-01-06T12:00:52.084Z,12.13
2023-01-06T12:03:07.743Z,12.19
2023-01-06T12:05:20.621Z,12.17
2023-01-06T12:07:34.536Z,12.21
2023-01-06T12:09:42.197Z,12.23
2023-01-06T12:11:52.027Z,12.12
2023-01-06T12:14:10.606Z,12.06
2023-01-06T12:16:24.005Z,12.13
2023-01-06T12:18:29.940Z,12.14
2023-01-06T12:20:36.729Z,12.22
2023-01-06T12:22:46.220Z,12.18
2023-01-06T12:24:50.319Z,12.24
2023-01-06T12:26:53.626Z,12.25
2023-01-06T12:28:58.165Z,12.19
2023-01-06T12:31:06.876Z,12.23
2023-01-06T12:33:16.018Z,12.21
2023-01-06T12:35:25.543Z,12.17
2023-01-06T12:37:31.916Z,12.25
2023-01-06T12:39:42.356Z,12.24
2023-01-06T12:41:53.819Z,12.25
2023-01-06T12:44:06.963Z,12.06
2023-01-06T12:46:16.675Z,12.07
2023-01-06T12:48:25.178Z,12.05
2023-01-06T12:50:31.063Z,11.90
2023-01-06T12:52:43.341Z,11.97
2023-01-06T12:54:52.972Z,12.02
2023-01-06T12:57:03.928Z,12.13
2023-01-06T12:59:12.771Z,12.19
2023-01-06T13:01:19.628Z,12.26
2023-01-06T13:03:26.384Z,12.33
2023-01-06T13:05:40.719Z,12.38
2023-01-06T13:07:47.707Z,12.39
2023-01-06T13:09:56.318Z,12.41
2023-01-06T13:12:04.880Z,12.42
2023-01-06T13:14:08.857Z,12.49
2023-01-06T13:16:17.318Z,12.62
2023-01-06T13:18:29.082Z,12.64
2023-01-06T13:20:42.060Z,12.71
2023-01-06T13:22:56.617Z,12.73
2023-01-06T13:25:05.007Z,12.77
2023-01-06T13:27:18.374Z,12.83
2023-01-06T13:29:26.774Z,12.80
2023-01-06T13:31:42.996Z,12.76
2023-01-06T13:33:50.560Z,12.75
2023-01-06T13:36:02.324Z,12.59
2023-01-06T13:38:07.997Z,12.57
2023-01-06T13:40:15.109Z,12.63
2023-01-06T13:42:26.238Z,12.70
2023-01-06T13:44:32.551Z,12.74
2023-01-06T13:46:35.874Z,12.64
2023-01-06T13:48:42.355Z,12.83
2023-01-06T13:50:46.311Z,12.76
2023-01-06T13:52:50.620Z,12.82
2023-01-06T13:54:53.578Z,12.82
2023-01-06T13:57:02.171Z,12.83
2023-01-06T13:59:10.633Z,12.88
2023-01-06T14:01:32.297Z,12.86
2023-01-06T14:03:35.812Z,12.93
2023-01-06T14:05:38.772Z,12.92
2023-01-06T14:07:49.228Z,12.96
2023-01-06T14:09:51.682Z,12.83
2023-01-06T14:11:54.873Z,12.80
2023-01-06T14:13:59.854Z,12.77
2023-01-06T14:16:06.310Z,12.72
2023-01-06T14:18:30.405Z,12.76
2023-01-06T14:20:36.177Z,12.73
2023-01-06T14:22:38.473Z,12.79
2023-01-06T14:24:48.094Z,12.78
2023-01-06T14:26:51.217Z,12.73
2023-01-06T14:28:53.518Z,12.66
2023-01-06T14:31:02.260Z,12.56
2023-01-06T14:33:25.174Z,12.67
2023-01-06T14:35:32.126Z,12.70
2023-01-06T14:37:44.196Z,12.80
2023-01-06T14:39:49.813Z,12.81
2023-01-06T14:41:56.446Z,12.84
2023-01-06T14:44:03.902Z,12.79
2023-01-06T14:46:15.356Z,12.85
2023-01-06T14:48:21.572Z,12.88
2023-01-06T14:50:34.808Z,12.87
2023-01-06T14:52:56.037Z,12.91
2023-01-06T14:54:59.675Z,12.90
2023-01-06T14:57:03.882Z,12.91
2023-01-06T14:59:11.753Z,12.86
2023-01-06T15:01:22.807Z,12.90
2023-01-06T15:03:28.096Z,12.88
2023-01-06T15:05:35.107Z,12.82
2023-01-06T15:07:37.393Z,12.77
2023-01-06T15:09:39.844Z,12.72
2023-01-06T15:11:43.131Z,12.78
2023-01-06T15:13:45.678Z,12.88
2023-01-06T15:15:56.508Z,12.83
2023-01-06T15:18:02.964Z,12.86
2023-01-06T15:20:12.994Z,12.88
2023-01-06T15:22:21.181Z,12.91
2023-01-06T15:24:28.248Z,12.93
2023-01-06T15:26:32.282Z,12.87
2023-01-06T15:28:35.959Z,12.86
2023-01-06T15:30:38.362Z,12.86
2023-01-06T15:32:41.625Z,12.74
2023-01-06T15:34:47.252Z,12.76
2023-01-06T15:36:52.812Z,12.74
2023-01-06T15:39:01.293Z,12.71
2023-01-06T15:41:06.120Z,12.71
2023-01-06T15:43:09.018Z,12.77
2023-01-06T15:45:25.559Z,12.79
2023-01-06T15:47:32.313Z,12.80
2023-01-06T15:49:37.914Z,12.66
2023-01-06T15:51:40.244Z,12.74
2023-01-06T15:53:43.632Z,12.74
2023-01-06T15:55:50.629Z,12.69
2023-01-06T15:57:59.294Z,12.71
2023-01-06T16:00:06.668Z,12.74
2023-01-06T16:02:18.836Z,12.73
2023-01-06T16:04:22.602Z,12.70
2023-01-06T16:06:29.485Z,12.66
2023-01-06T16:08:31.784Z,12.66
2023-01-06T16:10:37.441Z,12.67
2023-01-06T16:12:39.722Z,12.63
2023-01-06T16:14:45.725Z,12.69
2023-01-06T16:16:48.187Z,12.73
2023-01-06T16:18:53.552Z,12.72
2023-01-06T16:20:56.767Z,12.67
2023-01-06T16:22:59.124Z,12.71
2023-01-06T16:25:05.569Z,12.67
2023-01-06T16:27:07.856Z,12.69
2023-01-06T16:29:16.356Z,12.69
2023-01-06T16:31:29.648Z,12.69
2023-01-06T16:33:39.766Z,12.62
2023-01-06T16:35:42.065Z,12.63
2023-01-06T16:37:45.335Z,12.67
2023-01-06T16:39:47.720Z,12.65
2023-01-06T16:41:56.770Z,12.58
2023-01-06T16:44:04.544Z,12.65
2023-01-06T16:46:15.838Z,12.72
2023-01-06T16:48:18.490Z,12.72
2023-01-06T16:50:22.578Z,12.76
2023-01-06T16:52:26.278Z,12.78
2023-01-06T16:54:29.214Z,12.74
2023-01-06T16:56:31.584Z,12.76
2023-01-06T16:58:35.932Z,12.73
2023-01-06T17:00:40.671Z,12.79
2023-01-06T17:02:43.623Z,12.80
2023-01-06T17:04:47.553Z,12.79
2023-01-06T17:06:49.830Z,12.77
2023-01-06T17:08:54.844Z,12.77
2023-01-06T17:11:00.249Z,12.85
2023-01-06T17:13:08.065Z,12.89
2023-01-06T17:15:12.856Z,12.94
2023-01-06T17:17:22.549Z,12.90
2023-01-06T17:19:27.013Z,12.93
2023-01-06T17:21:30.981Z,12.96
2023-01-06T17:23:42.680Z,12.96
2023-01-06T17:25:48.924Z,13.04
2023-01-06T17:27:51.268Z,12.97
2023-01-06T17:29:54.980Z,12.89
2023-01-06T17:32:03.733Z,12.90
2023-01-06T17:34:12.280Z,12.98
2023-01-06T17:36:20.683Z,12.92
2023-01-06T17:38:25.169Z,12.96
2023-01-06T17:40:35.343Z,12.98
2023-01-06T17:42:37.819Z,13.00
2023-01-06T17:44:46.502Z,13.05
2023-01-06T17:46:48.993Z,12.98
2023-01-06T17:49:01.519Z,13.05
2023-01-06T17:51:03.966Z,13.06
2023-01-06T17:53:15.609Z,13.03
2023-01-06T17:55:27.233Z,13.10
2023-01-06T17:57:29.518Z,13.09
2023-01-06T17:59:31.763Z,13.12
2023-01-06T18:01:35.677Z,13.12
2023-01-06T18:03:41.266Z,13.18
2023-01-06T18:05:44.508Z,13.02
2023-01-06T18:07:47.079Z,13.05
2023-01-06T18:09:53.148Z,13.08
2023-01-06T18:12:00.320Z,13.10
2023-01-06T18:14:15.876Z,13.08
2023-01-06T18:16:28.225Z,13.09
2023-01-06T18:18:34.077Z,13.09
2023-01-06T18:20:36.399Z,13.05
2023-01-06T18:22:40.890Z,13.04
2023-01-06T18:24:44.106Z,13.01
2023-01-06T18:26:49.788Z,13.00
2023-01-06T18:28:53.320Z,13.07
2023-01-06T18:30:59.563Z,12.99
2023-01-06T18:33:02.218Z,13.05
2023-01-06T18:35:11.141Z,13.08
2023-01-06T18:37:13.563Z,13.07
2023-01-06T18:39:23.099Z,13.14
2023-01-06T18:41:25.458Z,13.16
2023-01-06T18:43:31.000Z,13.12
2023-01-06T18:45:36.745Z,13.14
2023-01-06T18:47:42.004Z,13.18
2023-01-06T18:49:44.847Z,13.22
2023-01-06T18:51:47.035Z,13.34
2023-01-06T18:53:51.804Z,13.37
2023-01-06T18:55:57.843Z,13.35
2023-01-06T18:58:08.030Z,13.45
2023-01-06T19:00:31.110Z,13.47
2023-01-06T19:02:39.541Z,13.37
2023-01-06T19:04:42.755Z,13.37
2023-01-06T19:06:50.611Z,13.46
2023-01-06T19:08:53.076Z,13.46
2023-01-06T19:10:55.336Z,13.41
2023-01-06T19:13:00.469Z,13.27
2023-01-06T19:15:08.960Z,13.42
2023-01-06T19:17:20.705Z,13.35
2023-01-06T19:19:26.908Z,13.36
2023-01-06T19:21:29.279Z,13.41
2023-01-06T19:23:32.952Z,13.47
2023-01-06T19:25:40.920Z,13.53
2023-01-06T19:27:47.180Z,13.52
2023-01-06T19:29:49.479Z,13.55
2023-01-06T19:31:57.144Z,13.56
2023-01-06T19:34:02.562Z,13.63
2023-01-06T19:36:05.599Z,13.69
2023-01-06T19:38:22.380Z,13.62
2023-01-06T19:40:28.839Z,13.62
2023-01-06T19:42:32.185Z,13.48
2023-01-06T19:44:39.046Z,13.48
2023-01-06T19:46:43.838Z,13.57
2023-01-06T19:48:46.199Z,13.60
2023-01-06T19:50:48.480Z,13.63
2023-01-06T19:52:58.569Z,13.66
2023-01-06T19:55:15.716Z,13.58
2023-01-06T19:57:27.701Z,13.63
2023-01-06T19:59:33.484Z,13.58
2023-01-06T20:01:36.717Z,13.61
2023-01-06T20:03:45.177Z,13.63
2023-01-06T20:05:47.501Z,13.57
2023-01-06T20:07:49.785Z,13.60
2023-01-06T20:09:52.050Z,13.56
2023-01-06T20:11:54.731Z,13.67
2023-01-06T20:13:56.986Z,13.61
2023-01-06T20:15:59.379Z,13.75
2023-01-06T20:18:01.642Z,13.55
2023-01-06T20:20:05.046Z,13.62
2023-01-06T20:22:07.358Z,13.66
2023-01-06T20:24:11.114Z,13.52
2023-01-06T20:26:13.374Z,13.57
2023-01-06T20:28:17.005Z,13.66
2023-01-06T20:30:19.472Z,13.70
2023-01-06T20:32:21.917Z,13.49
2023-01-06T20:34:24.178Z,13.63
2023-01-06T20:36:26.523Z,13.61
2023-01-06T20:38:28.756Z,13.74
2023-01-06T20:40:30.983Z,13.69
2023-01-06T20:42:33.500Z,13.54
2023-01-06T20:44:36.131Z,13.56
2023-01-06T20:46:38.583Z,13.45
2023-01-06T20:48:41.484Z,13.49
2023-01-06T20:50:43.846Z,13.67
2023-01-06T20:52:46.042Z,13.66
2023-01-06T20:54:48.317Z,13.49
2023-01-06T20:56:50.527Z,13.58
2023-01-06T20:58:52.769Z,13.56
2023-01-06T21:00:55.058Z,13.53
2023-01-06T21:02:57.489Z,13.53
2023-01-06T21:04:59.881Z,13.54
2023-01-06T21:07:02.164Z,13.50
2023-01-06T21:09:04.438Z,13.60
2023-01-06T21:11:06.708Z,13.66
2023-01-06T21:13:08.980Z,13.55
2023-01-06T21:15:13.034Z,13.64
2023-01-06T21:17:15.290Z,13.53
2023-01-06T21:19:18.054Z,13.60
2023-01-06T21:21:21.310Z,13.54
2023-01-06T21:23:23.776Z,13.49
2023-01-06T21:25:26.144Z,13.42
2023-01-06T21:27:28.506Z,13.47
2023-01-06T21:29:31.144Z,13.46
2023-01-06T21:31:33.625Z,13.27
2023-01-06T21:33:36.024Z,13.41
2023-01-06T21:35:38.364Z,13.49
2023-01-06T21:37:40.808Z,13.46
2023-01-06T21:39:43.031Z,13.62
2023-01-06T21:41:48.330Z,13.57
2023-01-06T21:43:50.803Z,13.57
2023-01-06T21:45:53.076Z,13.66
2023-01-06T21:47:55.652Z,13.69
2023-01-06T21:49:57.956Z,13.72
2023-01-06T21:52:02.870Z,13.72
2023-01-06T21:54:05.927Z,13.70
2023-01-06T21:56:09.354Z,13.62
2023-01-06T21:58:11.657Z,13.51
2023-01-06T22:00:15.269Z,13.61
2023-01-06T22:02:17.783Z,13.64
2023-01-06T22:04:20.203Z,13.66
2023-01-06T22:06:23.879Z,13.72
2023-01-06T22:08:26.184Z,13.67
2023-01-06T22:10:28.520Z,13.69
2023-01-06T22:12:31.538Z,13.70
2023-01-06T22:14:34.197Z,13.72
2023-01-06T22:16:38.931Z,13.73
2023-01-06T22:18:41.659Z,13.64
2023-01-06T22:20:44.582Z,13.61
2023-01-06T22:22:47.700Z,13.52
2023-01-06T22:24:52.278Z,13.66
2023-01-06T22:26:54.638Z,13.60
2023-01-06T22:28:57.095Z,13.55
2023-01-06T22:30:59.633Z,13.42
2023-01-06T22:33:02.047Z,13.53
2023-01-06T22:35:07.701Z,13.50
2023-01-06T22:37:10.056Z,13.45
2023-01-06T22:39:12.420Z,13.52
2023-01-06T22:41:15.448Z,13.53
2023-01-06T22:43:18.718Z,13.47
2023-01-06T22:45:21.135Z,13.57
2023-01-06T22:47:23.332Z,13.48
2023-01-06T22:49:25.597Z,13.47
2023-01-06T22:51:28.874Z,13.52
2023-01-06T22:53:32.670Z,13.51
2023-01-06T22:55:35.093Z,13.59
2023-01-06T22:57:37.305Z,13.47
2023-01-06T22:59:39.551Z,13.43
2023-01-06T23:01:42.154Z,13.54
2023-01-06T23:03:44.673Z,13.58
2023-01-06T23:05:56.037Z,13.50
2023-01-06T23:07:58.239Z,13.53
2023-01-06T23:10:00.353Z,13.41
2023-01-06T23:12:02.824Z,13.45
2023-01-06T23:14:05.018Z,13.45
2023-01-06T23:16:10.211Z,13.63
2023-01-06T23:18:12.588Z,13.50
2023-01-06T23:20:14.849Z,13.58
2023-01-06T23:22:17.142Z,13.51
2023-01-06T23:24:19.417Z,13.64
2023-01-06T23:26:27.343Z,13.67
2023-01-06T23:28:29.746Z,13.60
2023-01-06T23:30:34.784Z,13.59
2023-01-06T23:32:37.175Z,13.61
2023-01-06T23:34:39.489Z,13.49
2023-01-06T23:36:42.804Z,13.62
2023-01-06T23:38:45.635Z,13.57
2023-01-06T23:40:47.401Z,13.57
2023-01-06T23:42:49.577Z,13.58
2023-01-06T23:45:12.021Z,13.52
2023-01-06T23:47:19.647Z,13.50
2023-01-06T23:49:22.047Z,13.60
2023-01-06T23:51:24.900Z,13.48
2023-01-06T23:53:29.308Z,13.57
2023-01-06T23:55:31.522Z,13.66
2023-01-06T23:57:34.557Z,13.71
2023-01-06T23:59:36.757Z,13.63
